Time;durP1;ratioP1;P1;durP2;ratioP2;P2;SDS_P1;SDS_P2;PMS_P1;PMS_P2;Temp;Humidity;BMP_temperature;BMP_pressure;BME280_temperature;BME280_humidity;BME280_pressure;Samples;Min_cycle;Max_cycle;Signal;HPM_P1;HPM_P2
2021/08/13 00:00:58;;;;;;;23.53;8.10;;;;;;;19.14;76.59;97018.88;2594000;31;20478;-74
2021/08/13 00:03:28;;;;;;;14.27;7.67;;;;;;;19.15;76.86;97012.59;2594106;54;20402;-74
2021/08/13 00:06:00;;;;;;;15.63;8.23;;;;;;;19.11;77.05;97007.72;2595262;36;20799;-76
2021/08/13 00:08:29;;;;;;;12.47;7.43;;;;;;;19.11;77.07;97000.63;2594914;54;20410;-75
2021/08/13 00:10:59;;;;;;;13.30;8.30;;;;;;;19.06;76.89;97005.53;2595147;31;20443;-75
2021/08/13 00:13:29;;;;;;;10.70;7.53;;;;;;;19.10;76.57;97006.91;2595187;54;20387;-75
2021/08/13 00:15:59;;;;;;;16.63;8.77;;;;;;;18.86;78.17;97002.16;2594962;36;20934;-73
2021/08/13 00:18:29;;;;;;;12.40;8.33;;;;;;;18.76;78.26;97004.81;2595132;39;21041;-74
2021/08/13 00:21:00;;;;;;;14.43;7.30;;;;;;;18.64;78.85;97000.69;2594716;31;20745;-72
2021/08/13 00:23:30;;;;;;;13.30;9.17;;;;;;;18.82;78.05;97005.22;2593873;39;20745;-73
2021/08/13 00:26:00;;;;;;;15.93;9.10;;;;;;;18.77;78.02;97003.81;2594806;36;20433;-74
2021/08/13 00:28:37;;;;;;;15.50;8.73;;;;;;;18.84;77.74;97000.63;2595292;54;20434;-74
2021/08/13 00:31:07;;;;;;;14.97;8.00;;;;;;;18.80;77.81;97007.19;2594623;36;20406;-75
2021/08/13 00:33:39;;;;;;;12.70;8.33;;;;;;;18.82;78.10;97005.22;2594821;39;20790;-76
2021/08/13 00:36:10;;;;;;;17.97;7.27;;;;;;;18.81;77.94;97001.75;2594539;36;20415;-75
2021/08/13 00:38:40;;;;;;;13.93;8.07;;;;;;;18.64;77.41;97005.13;2595108;54;20427;-75
2021/08/13 00:41:10;;;;;;;16.20;8.03;;;;;;;18.36;78.26;96997.97;2593717;36;20427;-76
2021/08/13 00:43:39;;;;;;;13.57;7.90;;;;;;;18.38;78.58;97004.00;2594592;54;20938;-76
2021/08/13 00:46:09;;;;;;;14.63;8.50;;;;;;;18.49;79.09;97002.97;2594502;31;20461;-75
2021/08/13 00:48:40;;;;;;;17.30;7.33;;;;;;;18.44;78.43;97005.22;2594484;47;20435;-74
2021/08/13 00:51:11;;;;;;;12.33;8.80;;;;;;;18.46;78.27;97016.50;2595310;36;20937;-74
2021/08/13 00:53:41;;;;;;;11.70;7.33;;;;;;;18.51;78.61;97016.09;2595525;54;20419;-73
2021/08/13 00:56:13;;;;;;;13.20;8.43;;;;;;;18.42;78.08;97001.88;2594944;36;20391;-73
2021/08/13 00:58:43;;;;;;;16.73;8.30;;;;;;;18.47;78.63;97009.41;2595430;54;20419;-74
2021/08/13 01:01:13;;;;;;;18.07;8.20;;;;;;;18.48;78.26;97014.53;2594986;36;20418;-74
2021/08/13 01:03:43;;;;;;;12.90;8.00;;;;;;;18.38;78.51;97006.66;2594559;54;21005;-73
2021/08/13 01:06:15;;;;;;;12.80;8.90;;;;;;;18.42;78.75;97012.47;2594638;36;20747;-73
2021/08/13 01:08:45;;;;;;;10.33;7.77;;;;;;;18.38;78.29;97014.59;2595118;54;21350;-75
2021/08/13 01:11:21;;;;;;;17.43;7.83;;;;;;;18.32;78.50;97020.47;2594225;36;20399;-74
2021/08/13 01:13:58;;;;;;;13.70;7.73;;;;;;;18.24;79.39;97016.88;2594984;54;20979;-74
2021/08/13 01:16:29;;;;;;;12.70;8.30;;;;;;;18.21;79.36;97019.78;2594080;36;20418;-74
2021/08/13 01:19:07;;;;;;;18.33;7.93;;;;;;;18.19;78.56;97022.59;2595285;39;20763;-74
2021/08/13 01:21:48;;;;;;;12.13;8.50;;;;;;;18.02;79.74;97020.69;2594771;31;20862;-74
2021/08/13 01:24:20;;;;;;;12.43;8.63;;;;;;;18.08;79.74;97022.75;2594309;47;20494;-74
2021/08/13 01:26:56;;;;;;;11.07;7.70;;;;;;;18.16;79.59;97026.34;2594734;36;20767;-72
2021/08/13 01:29:35;;;;;;;11.00;7.53;;;;;;;18.18;79.53;97027.06;2594742;54;20445;-74
2021/08/13 01:32:23;;;;;;;11.33;7.93;;;;;;;18.06;79.49;97032.66;2594850;36;20418;-75
2021/08/13 01:34:57;;;;;;;12.53;7.57;;;;;;;17.90;79.52;97049.97;2594632;54;20406;-73
2021/08/13 01:37:30;;;;;;;12.00;7.77;;;;;;;17.63;80.34;97037.38;2595714;31;20423;-75
2021/08/13 01:40:03;;;;;;;12.10;8.03;;;;;;;17.75;80.38;97038.91;2594385;54;21107;-72
2021/08/13 01:42:34;;;;;;;9.70;7.50;;;;;;;17.85;79.94;97036.28;2594389;36;20866;-74
2021/08/13 01:45:07;;;;;;;11.67;8.00;;;;;;;18.01;79.67;97034.91;2594819;54;21187;-78
2021/08/13 01:47:39;;;;;;;11.90;8.13;;;;;;;18.12;79.16;97029.44;2594827;36;21133;-75
2021/08/13 01:50:10;;;;;;;19.13;8.33;;;;;;;18.14;79.40;97038.09;2594866;54;20439;-74
2021/08/13 01:52:41;;;;;;;14.07;8.27;;;;;;;18.15;79.96;97043.25;2594953;36;20898;-76
2021/08/13 01:55:13;;;;;;;12.60;8.13;;;;;;;18.07;79.99;97036.97;2593741;47;20422;-75
2021/08/13 01:57:44;;;;;;;12.03;8.23;;;;;;;18.31;79.62;97040.00;2594950;36;20965;-74
2021/08/13 02:00:18;;;;;;;12.43;8.00;;;;;;;18.42;80.45;97039.00;2597530;54;20442;-75
2021/08/13 02:02:51;;;;;;;14.80;8.67;;;;;;;18.45;80.71;97037.88;2594184;36;20415;-75
2021/08/13 02:05:25;;;;;;;11.17;7.20;;;;;;;18.53;80.63;97035.34;2594574;54;21023;-75
2021/08/13 02:07:56;;;;;;;12.93;7.60;;;;;;;18.37;80.65;97031.47;2594227;36;20427;-75
2021/08/13 02:10:27;;;;;;;14.23;8.10;;;;;;;18.53;80.40;97019.44;2594610;54;20395;-74
2021/08/13 02:12:57;;;;;;;14.93;8.30;;;;;;;18.51;80.57;97018.75;2594709;36;20411;-74
2021/08/13 02:15:27;;;;;;;16.60;8.53;;;;;;;18.62;80.38;97018.56;2593617;54;20938;-74
2021/08/13 02:18:06;;;;;;;12.80;8.50;;;;;;;18.55;80.22;97018.31;2594124;36;20571;-75
2021/08/13 02:20:39;;;;;;;21.37;8.43;;;;;;;18.46;80.92;97010.38;2594536;54;20469;-76
2021/08/13 02:23:10;;;;;;;16.20;8.40;;;;;;;18.51;80.55;97008.13;2594436;36;21067;-76
2021/08/13 02:25:39;;;;;;;12.47;7.83;;;;;;;18.62;80.44;97007.09;2594344;54;20423;-74
2021/08/13 02:28:09;;;;;;;10.27;6.90;;;;;;;18.57;79.71;97005.72;2594921;36;20974;-76
2021/08/13 02:30:39;;;;;;;11.90;7.93;;;;;;;18.60;79.80;97009.06;2593453;47;20426;-75
2021/08/13 02:33:11;;;;;;;14.13;7.53;;;;;;;18.64;79.56;97016.59;2595016;36;20433;-75
2021/08/13 02:35:41;;;;;;;12.30;7.53;;;;;;;18.34;79.80;97015.84;2594589;54;20436;-74
2021/08/13 02:38:14;;;;;;;9.97;7.53;;;;;;;18.09;80.97;97011.16;2596017;36;20941;-73
2021/08/13 02:40:50;;;;;;;13.50;7.97;;;;;;;18.45;80.59;96998.94;2594362;47;20429;-74
2021/08/13 02:43:26;;;;;;;14.63;7.90;;;;;;;18.67;79.57;97002.22;2594196;36;21021;-75
2021/08/13 02:46:00;;;;;;;15.10;8.13;;;;;;;18.34;80.67;97005.25;2595497;31;20935;-74
2021/08/13 02:48:34;;;;;;;13.17;8.07;;;;;;;18.35;81.11;96998.97;2595219;39;20783;-78
2021/08/13 02:51:05;;;;;;;12.07;7.77;;;;;;;18.23;82.01;97000.13;2595006;31;20995;-75
2021/08/13 02:53:40;;;;;;;10.00;7.07;;;;;;;18.49;81.26;97002.16;2594749;39;20763;-74
2021/08/13 02:56:12;;;;;;;11.63;7.80;;;;;;;18.61;80.81;97008.94;2595254;36;20746;-73
2021/08/13 02:58:46;;;;;;;12.93;7.37;;;;;;;18.56;80.75;97013.81;2594167;39;21147;-75
2021/08/13 03:01:18;;;;;;;12.77;7.37;;;;;;;17.93;82.64;97007.28;2595123;36;20391;-74
2021/08/13 03:03:52;;;;;;;14.67;7.90;;;;;;;17.84;82.38;97017.88;2595316;39;20841;-76
2021/08/13 03:06:26;;;;;;;12.10;7.33;;;;;;;17.73;83.36;97026.78;2595246;36;21039;-73
2021/08/13 03:08:58;;;;;;;17.67;8.17;;;;;;;18.08;81.67;97028.06;2595188;54;20423;-75
2021/08/13 03:11:29;;;;;;;16.10;8.23;;;;;;;17.63;83.03;97020.66;2595612;36;20848;-74
2021/08/13 03:14:00;;;;;;;13.70;8.53;;;;;;;17.63;83.77;97015.38;2595400;54;20414;-73
2021/08/13 03:16:29;;;;;;;14.13;8.67;;;;;;;17.48;85.20;97013.13;2594289;36;20898;-75
2021/08/13 03:19:02;;;;;;;12.37;8.77;;;;;;;17.43;85.52;97015.38;2594685;54;20426;-74
2021/08/13 03:21:33;;;;;;;13.43;7.90;;;;;;;17.34;85.99;97017.00;2594494;36;20411;-76
2021/08/13 03:24:04;;;;;;;12.63;8.57;;;;;;;17.86;84.35;97019.44;2595040;54;20395;-74
2021/08/13 03:26:35;;;;;;;23.10;8.77;;;;;;;18.08;82.99;97015.63;2594060;36;20943;-75
2021/08/13 03:29:05;;;;;;;14.20;8.60;;;;;;;18.23;83.08;97031.09;2595085;54;20950;-75
2021/08/13 03:31:36;;;;;;;16.73;9.00;;;;;;;17.96;83.56;97052.06;2595017;36;20462;-75
2021/08/13 03:34:10;;;;;;;16.13;9.13;;;;;;;17.92;84.46;97053.31;2597722;54;20489;-75
2021/08/13 03:36:41;;;;;;;11.60;8.23;;;;;;;17.78;85.58;97046.59;2594647;36;20545;-74
2021/08/13 03:39:12;;;;;;;17.97;9.57;;;;;;;17.44;86.45;97043.50;2595146;54;20423;-75
2021/08/13 03:41:43;;;;;;;14.00;9.63;;;;;;;17.36;85.58;97028.28;2595866;36;20418;-73
2021/08/13 03:44:13;;;;;;;17.20;8.80;;;;;;;17.47;85.98;97042.41;2595524;54;20478;-75
2021/08/13 03:46:43;;;;;;;16.00;9.33;;;;;;;17.53;85.78;97034.72;2596259;36;20786;-74
2021/08/13 03:49:14;;;;;;;20.87;9.20;;;;;;;17.97;84.42;97042.28;2596883;54;20953;-75
2021/08/13 03:51:44;;;;;;;18.23;9.90;;;;;;;18.08;83.41;97043.97;2596446;36;20771;-79
2021/08/13 03:54:14;;;;;;;12.80;9.57;;;;;;;18.06;84.07;97044.09;2596437;39;20800;-76
2021/08/13 03:56:44;;;;;;;13.83;8.97;;;;;;;18.12;83.21;97030.28;2596240;36;20423;-76
2021/08/13 03:59:14;;;;;;;14.87;9.57;;;;;;;18.10;83.29;97060.56;2599889;54;20497;-76
2021/08/13 04:01:44;;;;;;;17.50;9.77;;;;;;;18.06;83.15;97061.81;2597004;36;20774;-76
2021/08/13 04:04:15;;;;;;;15.10;9.70;;;;;;;17.71;85.08;97049.94;2596401;54;20426;-78
2021/08/13 04:06:45;;;;;;;19.93;9.63;;;;;;;17.65;85.88;97050.50;2595471;36;20743;-78
2021/08/13 04:09:15;;;;;;;17.50;9.20;;;;;;;18.02;84.15;97048.00;2596226;54;20905;-77
2021/08/13 04:11:44;;;;;;;20.60;8.67;;;;;;;18.10;82.96;97050.78;2596328;36;21254;-75
2021/08/13 04:14:14;;;;;;;17.53;8.83;;;;;;;18.23;81.50;97058.44;2595874;54;21009;-76
2021/08/13 04:16:44;;;;;;;16.20;8.93;;;;;;;18.37;80.62;97052.69;2596427;36;20414;-77
2021/08/13 04:19:15;;;;;;;16.40;8.10;;;;;;;18.58;79.61;97055.16;2596902;54;20882;-77
2021/08/13 04:21:45;;;;;;;12.87;9.03;;;;;;;18.51;80.44;97058.53;2596088;36;20431;-77
2021/08/13 04:24:15;;;;;;;14.20;8.00;;;;;;;18.35;81.18;97044.03;2598143;54;20414;-77
2021/08/13 04:26:45;;;;;;;17.83;8.67;;;;;;;18.45;80.08;97043.19;2602315;36;20511;-77
2021/08/13 04:29:22;;;;;;;21.60;8.33;;;;;;;18.62;79.06;97061.00;2608434;54;20419;-76
2021/08/13 04:31:52;;;;;;;12.27;8.70;;;;;;;18.61;79.68;97061.97;2602832;36;20438;-77
2021/08/13 04:34:23;;;;;;;20.03;8.47;;;;;;;18.59;78.70;97066.59;2598812;54;21258;-77
2021/08/13 04:36:53;;;;;;;14.60;8.70;;;;;;;18.50;80.01;97068.31;2603005;36;20808;-77
2021/08/13 04:39:23;;;;;;;10.90;7.77;;;;;;;18.62;79.71;97071.63;2600841;39;20915;-78
2021/08/13 04:41:53;;;;;;;12.53;8.50;;;;;;;18.58;80.36;97070.19;2595627;36;20958;-78
2021/08/13 04:44:23;;;;;;;19.00;8.60;;;;;;;18.57;79.99;97069.38;2595380;54;20458;-79
2021/08/13 04:46:53;;;;;;;13.80;8.83;;;;;;;18.56;80.10;97065.06;2594927;36;20414;-78
2021/08/13 04:49:24;;;;;;;13.43;8.30;;;;;;;18.63;80.38;97069.78;2595277;54;20910;-77
2021/08/13 04:51:54;;;;;;;12.80;7.73;;;;;;;18.60;80.05;97068.25;2596649;36;20430;-77
2021/08/13 04:54:27;;;;;;;24.07;8.50;;;;;;;18.67;79.89;97056.09;2601020;54;20423;-77
2021/08/13 04:57:07;;;;;;;14.87;8.30;;;;;;;18.66;80.11;97070.34;2616061;36;20409;-78
2021/08/13 04:59:54;;;;;;;15.10;8.00;;;;;;;18.58;80.57;97067.56;2606731;39;20891;-78
2021/08/13 05:02:25;;;;;;;12.33;8.80;;;;;;;18.65;80.20;97071.31;2602501;36;20462;-76
2021/08/13 05:05:01;;;;;;;12.60;7.90;;;;;;;18.59;80.76;97077.19;2595352;54;21444;-75
2021/08/13 05:07:32;;;;;;;15.60;8.30;;;;;;;18.59;80.69;97077.19;2596421;36;20410;-77
2021/08/13 05:10:08;;;;;;;17.23;8.70;;;;;;;18.63;80.51;97083.06;2595113;54;20423;-77
2021/08/13 05:12:38;;;;;;;15.47;9.10;;;;;;;18.65;80.19;97081.91;2594543;31;20856;-75
2021/08/13 05:15:10;;;;;;;11.40;7.97;;;;;;;18.68;79.85;97076.34;2595415;54;20415;-76
2021/08/13 05:17:41;;;;;;;14.07;7.70;;;;;;;18.82;79.47;97072.41;2597913;36;20786;-75
2021/08/13 05:20:14;;;;;;;12.83;7.93;;;;;;;18.90;78.96;97063.72;2602928;54;20411;-74
2021/08/13 05:22:44;;;;;;;54.53;29.50;;;;;;;19.00;79.17;97064.50;2594169;31;20766;-75
2021/08/13 05:25:16;;;;;;;21.03;10.97;;;;;;;19.18;78.64;97077.81;2596030;54;20447;-76
2021/08/13 05:27:46;;;;;;;14.90;10.60;;;;;;;19.24;78.59;97079.06;2595895;36;21165;-74
2021/08/13 05:30:17;;;;;;;17.33;9.17;;;;;;;19.22;79.14;97073.06;2594781;39;21163;-74
2021/08/13 05:32:49;;;;;;;28.90;8.23;;;;;;;19.41;79.15;97085.41;2594881;36;20430;-74
2021/08/13 05:35:20;;;;;;;20.60;8.90;;;;;;;19.53;78.72;97087.69;2595733;54;20929;-74
2021/08/13 05:37:50;;;;;;;45.13;9.90;;;;;;;19.63;78.71;97087.63;2594798;36;20775;-75
2021/08/13 05:40:21;;;;;;;31.97;9.03;;;;;;;19.74;78.37;97083.97;2595580;54;20457;-74
2021/08/13 05:42:51;;;;;;;33.03;9.93;;;;;;;19.88;77.50;97085.25;2595554;36;20563;-74
2021/08/13 05:45:21;;;;;;;35.10;9.43;;;;;;;19.76;79.08;97097.94;2595053;54;20459;-74
2021/08/13 05:47:51;;;;;;;41.07;8.20;;;;;;;19.88;76.86;97095.88;2595300;36;20430;-74
2021/08/13 05:50:23;;;;;;;18.73;8.63;;;;;;;19.92;77.72;97092.75;2596906;54;20391;-74
2021/08/13 05:52:53;;;;;;;21.83;9.07;;;;;;;20.04;77.27;97101.34;2596468;36;20845;-74
2021/08/13 05:55:23;;;;;;;15.30;7.50;;;;;;;20.06;77.24;97099.34;2596148;39;20824;-75
2021/08/13 05:57:53;;;;;;;15.43;8.17;;;;;;;20.13;76.91;97100.44;2594924;36;21256;-75
2021/08/13 06:00:23;;;;;;;22.07;9.07;;;;;;;20.35;76.11;97090.28;2594566;54;20426;-74
2021/08/13 06:02:58;;;;;;;23.07;9.83;;;;;;;20.80;74.76;97102.59;2595305;31;20457;-74
2021/08/13 06:05:29;;;;;;;20.13;9.30;;;;;;;20.19;76.33;97109.63;2594893;39;21021;-74
2021/08/13 06:07:59;;;;;;;15.57;9.10;;;;;;;20.44;75.98;97112.44;2596475;36;20406;-74
2021/08/13 06:10:29;;;;;;;19.10;8.50;;;;;;;20.78;74.64;97099.25;2595579;39;20865;-75
2021/08/13 06:12:59;;;;;;;17.43;8.80;;;;;;;20.51;75.64;97100.22;2595325;36;20426;-75
2021/08/13 06:15:29;;;;;;;20.00;8.60;;;;;;;20.90;75.26;97100.66;2595829;54;20423;-72
2021/08/13 06:17:58;;;;;;;127.73;78.07;;;;;;;21.14;74.41;97089.28;2595370;36;20423;-75
2021/08/13 06:20:30;;;;;;;63.53;35.70;;;;;;;21.56;73.30;97102.78;2595271;54;20954;-75
2021/08/13 06:22:59;;;;;;;19.03;8.70;;;;;;;21.57;72.71;97099.13;2595140;36;20866;-76
2021/08/13 06:25:29;;;;;;;18.43;8.20;;;;;;;21.86;72.00;97104.03;2595544;54;21290;-76
2021/08/13 06:27:59;;;;;;;22.53;9.20;;;;;;;22.15;70.36;97108.03;2595292;36;20422;-76
2021/08/13 06:30:29;;;;;;;16.80;8.37;;;;;;;22.20;69.70;97116.38;2595710;39;21061;-77
2021/08/13 06:33:00;;;;;;;14.30;8.77;;;;;;;21.67;71.84;97115.78;2596288;36;20465;-76
2021/08/13 06:35:32;;;;;;;30.43;9.53;;;;;;;21.70;70.95;97104.81;2595294;54;20466;-76
2021/08/13 06:38:02;;;;;;;14.17;9.17;;;;;;;22.28;68.82;97111.91;2596647;36;20445;-75
2021/08/13 06:40:34;;;;;;;14.80;8.60;;;;;;;22.42;68.86;97112.22;2596678;54;20427;-78
2021/08/13 06:43:04;;;;;;;15.57;9.00;;;;;;;22.83;68.17;97106.84;2598399;36;20769;-77
2021/08/13 06:45:37;;;;;;;13.73;8.63;;;;;;;22.94;67.09;97117.16;2596351;54;20917;-78
2021/08/13 06:48:07;;;;;;;13.10;8.10;;;;;;;23.19;66.64;97109.97;2596023;36;21313;-77
2021/08/13 06:50:38;;;;;;;14.80;8.60;;;;;;;23.21;65.63;97112.47;2595926;54;20419;-78
2021/08/13 06:53:08;;;;;;;14.40;8.40;;;;;;;23.23;65.56;97107.78;2596515;36;20469;-77
2021/08/13 06:55:40;;;;;;;19.90;8.97;;;;;;;23.20;65.08;97103.59;2596102;54;20514;-78
2021/08/13 06:58:10;;;;;;;15.00;8.70;;;;;;;23.02;65.65;97114.50;2604249;36;21091;-75
2021/08/13 07:01:08;;;;;;;13.17;8.13;;;;;;;23.17;65.75;97119.13;2600793;31;21026;-75
2021/08/13 07:03:38;;;;;;;16.27;8.47;;;;;;;23.58;64.30;97110.94;2596556;54;20931;-75
2021/08/13 07:06:09;;;;;;;21.53;9.90;;;;;;;23.99;63.86;97121.44;2596510;36;20419;-75
2021/08/13 07:08:39;;;;;;;21.83;8.80;;;;;;;24.27;62.66;97113.72;2595630;54;20419;-76
2021/08/13 07:11:09;;;;;;;28.53;9.40;;;;;;;24.55;62.52;97118.53;2595886;36;20522;-76
2021/08/13 07:13:39;;;;;;;37.40;9.00;;;;;;;24.53;61.28;97120.56;2596079;39;21065;-75
2021/08/13 07:16:09;;;;;;;32.70;8.67;;;;;;;24.67;60.97;97133.13;2595062;36;20415;-76
2021/08/13 07:18:39;;;;;;;29.83;9.00;;;;;;;25.05;59.72;97114.31;2595912;54;20547;-76
2021/08/13 07:21:10;;;;;;;23.83;9.00;;;;;;;25.23;58.66;97111.34;2595805;36;20471;-75
2021/08/13 07:23:39;;;;;;;37.07;9.10;;;;;;;24.70;59.47;97099.81;2596024;39;20722;-75
2021/08/13 07:26:09;;;;;;;16.00;8.30;;;;;;;24.41;60.64;97115.59;2596289;36;20929;-75
2021/08/13 07:28:39;;;;;;;23.83;8.43;;;;;;;25.59;58.39;97116.72;2594957;47;20418;-76
2021/08/13 07:31:09;;;;;;;13.43;7.90;;;;;;;26.26;55.73;97112.09;2596712;36;20407;-75
2021/08/13 07:33:39;;;;;;;21.10;7.97;;;;;;;26.13;54.62;97118.19;2596853;54;20423;-75
2021/08/13 07:36:10;;;;;;;28.33;7.93;;;;;;;26.42;55.20;97113.69;2595623;31;20984;-76
2021/08/13 07:38:42;;;;;;;14.57;8.03;;;;;;;26.70;53.76;97108.38;2594884;39;20646;-76
2021/08/13 07:41:13;;;;;;;17.17;7.53;;;;;;;27.39;52.20;97117.50;2594962;36;20455;-76
2021/08/13 07:43:43;;;;;;;15.90;7.17;;;;;;;27.10;51.51;97121.25;2595253;54;20462;-76
2021/08/13 07:46:13;;;;;;;22.67;7.50;;;;;;;27.00;52.25;97119.75;2594593;36;20379;-75
2021/08/13 07:48:43;;;;;;;15.80;7.83;;;;;;;27.39;51.25;97126.41;2595342;54;21057;-75
2021/08/13 07:51:14;;;;;;;104.23;70.47;;;;;;;27.46;50.75;97120.22;2595603;36;20463;-75
2021/08/13 07:53:44;;;;;;;16.87;8.67;;;;;;;26.93;51.87;97123.41;2595238;54;20418;-75
2021/08/13 07:56:27;;;;;;;15.67;6.97;;;;;;;27.70;50.78;97124.28;2606241;36;20581;-75
2021/08/13 07:58:57;;;;;;;16.50;7.33;;;;;;;27.29;51.44;97139.38;2598320;54;20447;-75
2021/08/13 08:01:27;;;;;;;16.00;6.60;;;;;;;25.84;54.50;97141.38;2594804;36;20438;-75
2021/08/13 08:03:58;;;;;;;18.23;6.60;;;;;;;26.08;52.77;97135.88;2595926;54;20437;-75
2021/08/13 08:06:43;;;;;;;12.80;7.10;;;;;;;25.65;54.81;97136.59;2596728;36;21009;-74
2021/08/13 08:09:13;;;;;;;16.23;6.70;;;;;;;26.75;51.89;97142.69;2594640;39;20747;-75
2021/08/13 08:11:43;;;;;;;15.83;6.40;;;;;;;27.49;50.69;97147.53;2595182;36;20941;-74
2021/08/13 08:14:12;;;;;;;20.60;8.23;;;;;;;27.75;49.71;97138.75;2595606;54;20458;-74
2021/08/13 08:16:42;;;;;;;12.80;6.40;;;;;;;27.02;48.91;97135.66;2594907;31;20954;-75
2021/08/13 08:19:12;;;;;;;9.43;5.63;;;;;;;27.07;49.19;97143.13;2594325;54;20415;-74
2021/08/13 08:21:43;;;;;;;13.00;6.10;;;;;;;27.41;48.74;97145.03;2594751;36;20942;-74
2021/08/13 08:24:14;;;;;;;10.10;5.10;;;;;;;27.84;46.91;97150.19;2594514;54;20422;-74
2021/08/13 08:26:44;;;;;;;10.70;4.07;;;;;;;27.69;45.84;97142.25;2595224;36;20433;-75
2021/08/13 08:29:14;;;;;;;10.00;4.63;;;;;;;28.27;44.66;97162.56;2597337;39;20797;-75
2021/08/13 08:31:47;;;;;;;13.20;6.03;;;;;;;28.52;44.43;97160.97;2598935;36;20938;-75
2021/08/13 08:34:17;;;;;;;10.77;5.03;;;;;;;27.59;45.85;97166.00;2598670;54;20927;-74
2021/08/13 08:36:50;;;;;;;9.10;5.23;;;;;;;28.36;45.83;97155.91;2596620;36;20430;-74
2021/08/13 08:39:21;;;;;;;9.00;4.57;;;;;;;29.17;44.89;97158.47;2595721;54;20502;-74
2021/08/13 08:41:51;;;;;;;12.57;5.17;;;;;;;28.28;45.08;97158.81;2595470;36;20872;-74
2021/08/13 08:44:21;;;;;;;40.50;24.53;;;;;;;28.47;44.87;97159.88;2595917;54;20431;-74
2021/08/13 08:46:52;;;;;;;22.67;7.30;;;;;;;28.69;44.83;97155.16;2597026;36;20821;-74
2021/08/13 08:49:23;;;;;;;9.90;5.27;;;;;;;28.37;44.73;97154.91;2595792;54;21386;-75
2021/08/13 08:51:57;;;;;;;10.27;5.03;;;;;;;29.22;42.73;97162.41;2596708;36;20961;-74
2021/08/13 08:54:28;;;;;;;8.07;4.30;;;;;;;28.83;42.85;97164.88;2597521;54;20470;-74
2021/08/13 08:56:59;;;;;;;11.40;5.50;;;;;;;28.92;44.09;97166.34;2596884;31;20419;-75
2021/08/13 08:59:43;;;;;;;13.43;4.93;;;;;;;29.35;42.31;97155.09;2596453;54;20453;-75
2021/08/13 09:02:14;;;;;;;9.03;4.60;;;;;;;29.21;42.66;97171.50;2595164;36;21202;-75
2021/08/13 09:04:44;;;;;;;9.40;4.80;;;;;;;28.28;44.77;97169.56;2596482;39;20752;-75
2021/08/13 09:07:16;;;;;;;8.03;4.43;;;;;;;29.44;44.36;97179.16;2596660;36;20459;-75
2021/08/13 09:09:46;;;;;;;10.10;5.30;;;;;;;29.69;42.55;97171.19;2599220;54;21096;-75
2021/08/13 09:12:16;;;;;;;9.97;5.00;;;;;;;29.29;42.74;97172.13;2595848;36;20462;-75
2021/08/13 09:14:48;;;;;;;12.50;5.90;;;;;;;28.93;43.35;97175.25;2598250;54;20498;-75
2021/08/13 09:17:19;;;;;;;9.77;4.80;;;;;;;29.31;43.21;97164.66;2598332;36;20422;-75
2021/08/13 09:19:53;;;;;;;10.00;5.30;;;;;;;29.48;42.60;97166.88;2597873;54;20500;-76
2021/08/13 09:22:24;;;;;;;8.70;5.20;;;;;;;30.15;43.26;97165.63;2595815;36;20946;-76
2021/08/13 09:24:56;;;;;;;11.47;6.13;;;;;;;30.81;42.89;97154.56;2596236;54;20415;-76
2021/08/13 09:27:29;;;;;;;10.60;5.00;;;;;;;30.84;41.50;97168.47;2597006;36;20848;-76
2021/08/13 09:30:15;;;;;;;10.20;5.13;;;;;;;29.81;43.01;97164.09;2596623;54;20929;-76
2021/08/13 09:32:56;;;;;;;8.80;5.37;;;;;;;29.95;42.49;97165.72;2598885;31;20490;-76
2021/08/13 09:35:38;;;;;;;10.23;5.63;;;;;;;29.01;45.17;97176.91;2598111;54;20427;-75
2021/08/13 09:38:14;;;;;;;7.83;5.23;;;;;;;29.91;43.08;97169.03;2595416;36;20941;-76
2021/08/13 09:40:45;;;;;;;14.40;5.33;;;;;;;30.00;41.70;97173.16;2596029;39;20453;-76
2021/08/13 09:43:15;;;;;;;18.47;5.57;;;;;;;30.58;40.57;97158.72;2596063;36;21211;-76
2021/08/13 09:45:45;;;;;;;9.27;7.30;;;;;;;31.56;42.44;97165.34;2597649;54;20918;-75
2021/08/13 09:48:25;;;;;;;14.53;6.73;;;;;;;30.99;43.14;97170.03;2596768;36;20434;-75
2021/08/13 09:50:55;;;;;;;19.23;7.17;;;;;;;32.08;41.71;97173.06;2596734;39;20874;-76
2021/08/13 09:53:26;;;;;;;12.33;6.93;;;;;;;32.22;41.77;97160.97;2596208;36;20422;-76
2021/08/13 09:55:57;;;;;;;9.93;6.27;;;;;;;31.99;42.79;97164.41;2596122;54;20427;-76
2021/08/13 09:58:29;;;;;;;12.07;7.03;;;;;;;31.75;43.32;97168.03;2596239;36;21008;-76
2021/08/13 10:00:59;;;;;;;11.70;7.27;;;;;;;32.59;42.20;97168.19;2595832;36;20510;-76
2021/08/13 10:03:29;;;;;;;9.27;6.00;;;;;;;32.71;40.92;97169.03;2595652;54;21024;-76
2021/08/13 10:06:07;;;;;;;7.07;6.30;;;;;;;33.04;39.87;97178.50;2595361;36;20617;-76
2021/08/13 10:08:45;;;;;;;13.23;6.47;;;;;;;32.42;40.41;97171.56;2596730;54;20410;-76
2021/08/13 10:11:16;;;;;;;7.67;6.10;;;;;;;32.59;41.34;97181.75;2600653;36;20442;-76
2021/08/13 10:13:46;;;;;;;9.50;6.73;;;;;;;32.34;41.78;97171.84;2595993;54;20430;-76
2021/08/13 10:16:23;;;;;;;13.47;7.73;;;;;;;32.77;41.60;97172.69;2596004;31;20407;-76
2021/08/13 10:18:55;;;;;;;9.80;6.87;;;;;;;32.66;41.81;97171.63;2595642;54;20418;-76
2021/08/13 10:21:26;;;;;;;14.33;7.00;;;;;;;33.49;40.70;97180.66;2596122;31;20969;-76
2021/08/13 10:23:58;;;;;;;7.23;5.80;;;;;;;33.62;38.56;97161.44;2595900;54;20427;-76
2021/08/13 10:26:28;;;;;;;10.77;7.30;;;;;;;33.24;40.13;97167.34;2596714;36;20427;-76
2021/08/13 10:28:59;;;;;;;13.90;7.70;;;;;;;32.94;40.82;97178.28;2596819;39;21073;-76
2021/08/13 10:31:30;;;;;;;13.20;7.10;;;;;;;33.38;41.81;97178.75;2595918;36;20410;-76
2021/08/13 10:34:00;;;;;;;17.30;6.50;;;;;;;33.17;42.27;97180.22;2596885;54;20411;-76
2021/08/13 10:36:30;;;;;;;15.20;5.50;;;;;;;32.81;41.61;97176.59;2595866;36;20565;-76
2021/08/13 10:39:01;;;;;;;10.27;6.73;;;;;;;32.66;40.66;97172.47;2596086;39;20783;-76
2021/08/13 10:41:32;;;;;;;7.87;6.67;;;;;;;32.73;42.04;97175.06;2596917;36;20407;-76
2021/08/13 10:44:11;;;;;;;8.30;6.60;;;;;;;33.35;40.23;97173.81;2596304;54;21065;-75
2021/08/13 10:46:43;;;;;;;9.37;7.03;;;;;;;32.96;40.47;97174.25;2597216;36;20418;-76
2021/08/13 10:49:14;;;;;;;11.27;7.10;;;;;;;34.05;39.00;97165.53;2596585;54;21289;-76
2021/08/13 10:51:45;;;;;;;9.30;6.27;;;;;;;33.41;40.27;97170.16;2595660;36;21025;-76
2021/08/13 10:54:19;;;;;;;13.03;7.00;;;;;;;34.16;39.21;97161.16;2595501;54;20387;-76
2021/08/13 10:56:50;;;;;;;8.23;6.70;;;;;;;33.93;39.94;97169.34;2597195;36;20438;-76
2021/08/13 10:59:50;;;;;;;10.50;7.53;;;;;;;35.03;36.41;97170.84;2597483;54;20439;-76
2021/08/13 11:02:21;;;;;;;9.27;6.50;;;;;;;33.87;39.35;97163.00;2597931;36;20410;-76
2021/08/13 11:04:53;;;;;;;10.43;6.90;;;;;;;33.39;38.60;97161.44;2595358;54;20434;-76
2021/08/13 11:08:00;;;;;;;8.33;5.97;;;;;;;34.54;37.19;97158.81;2595883;31;20914;-76
2021/08/13 11:10:57;;;;;;;11.40;6.73;;;;;;;34.33;38.19;97157.66;2595684;54;20426;-76
2021/08/13 11:13:37;;;;;;;9.90;6.30;;;;;;;34.83;37.48;97160.47;2561516;54;2004477;-76
2021/08/13 11:16:38;;;;;;;7.40;6.00;;;;;;;33.78;38.06;97168.00;2597646;36;20596;-76
2021/08/13 11:19:11;;;;;;;9.13;6.00;;;;;;;34.97;36.86;97160.09;2595664;54;20526;-76
2021/08/13 11:21:44;;;;;;;9.90;6.97;;;;;;;34.99;35.64;97157.97;2595885;31;20426;-76
2021/08/13 11:24:14;;;;;;;10.90;6.50;;;;;;;34.41;36.32;97159.97;2596213;39;20776;-76
2021/08/13 11:27:14;;;;;;;56.03;48.57;;;;;;;35.10;35.82;97162.50;2596225;36;20467;-76
2021/08/13 11:29:48;;;;;;;13.20;9.20;;;;;;;34.93;37.74;97157.09;2595909;54;20470;-76
2021/08/13 11:32:31;;;;;;;6.80;5.77;;;;;;;34.31;38.43;97157.09;2595521;36;20521;-76
2021/08/13 11:35:04;;;;;;;12.17;6.30;;;;;;;34.71;38.06;97165.13;2595396;54;20965;-76
2021/08/13 11:37:55;;;;;;;7.93;5.80;;;;;;;34.24;38.56;97152.59;2595072;36;20833;-76
2021/08/13 11:40:50;;;;;;;10.33;6.80;;;;;;;34.82;37.31;97147.94;2595122;54;20922;-76
2021/08/13 11:43:22;;;;;;;12.80;6.90;;;;;;;34.38;37.77;97149.59;2594828;36;20442;-76
2021/08/13 11:45:52;;;;;;;13.50;6.40;;;;;;;36.02;35.59;97147.41;2599611;39;20773;-76
2021/08/13 11:48:22;;;;;;;10.20;6.07;;;;;;;34.99;36.74;97156.09;2597639;36;21083;-76
2021/08/13 11:50:52;;;;;;;7.97;5.50;;;;;;;35.69;33.94;97153.00;2596492;54;20418;-76